createdAt,value
2022-10-24T00:01:09.873Z,100304.72
2022-10-24T00:06:14.422Z,100313.97
2022-10-24T00:11:20.362Z,100303.66
2022-10-24T00:16:23.108Z,100294.13
2022-10-24T00:21:26.972Z,100284.72
2022-10-24T00:26:30.013Z,100276.25
2022-10-24T00:31:32.976Z,100254.81
2022-10-24T00:36:36.912Z,100280.16
2022-10-24T00:41:42.624Z,100276.03
2022-10-24T00:46:49.518Z,100267.75
2022-10-24T00:51:56.655Z,100256.75
2022-10-24T00:57:05.124Z,100256.59
2022-10-24T01:02:07.811Z,100246.81
2022-10-24T01:07:24.266Z,100247.72
2022-10-24T01:12:37.364Z,100245.75
2022-10-24T01:17:46.245Z,100159.81
2022-10-24T01:23:00.566Z,100242.34
2022-10-24T01:28:08.605Z,100248.50
2022-10-24T01:33:19.390Z,100247.50
2022-10-24T01:38:27.075Z,100250.16
2022-10-24T01:43:34.472Z,100237.44
2022-10-24T01:48:43.716Z,100229.88
2022-10-24T01:53:47.491Z,100229.34
2022-10-24T01:58:50.376Z,100225.81
2022-10-24T02:03:58.877Z,100220.94
2022-10-24T02:09:08.473Z,100213.78
2022-10-24T02:14:17.396Z,100207.88
2022-10-24T02:19:22.272Z,100201.00
2022-10-24T02:24:29.287Z,100199.88
2022-10-24T02:29:37.679Z,100187.50
2022-10-24T02:34:43.770Z,100189.50
2022-10-24T02:39:48.808Z,100188.56
2022-10-24T02:44:51.485Z,100192.47
2022-10-24T02:49:56.663Z,100188.13
2022-10-24T02:54:59.251Z,100192.19
2022-10-24T03:00:01.828Z,100194.78
2022-10-24T03:05:06.876Z,100199.78
2022-10-24T03:10:09.955Z,100200.44
2022-10-24T03:15:12.996Z,100201.09
2022-10-24T03:20:17.558Z,100207.22
2022-10-24T03:25:20.098Z,100191.91
2022-10-24T03:30:24.017Z,100202.31
2022-10-24T03:35:27.885Z,100203.47
2022-10-24T03:40:30.415Z,100203.31
2022-10-24T03:45:32.951Z,100220.47
2022-10-24T03:50:36.988Z,100214.81
2022-10-24T03:55:39.560Z,100214.28
2022-10-24T04:00:42.765Z,100218.94
2022-10-24T04:05:46.666Z,100215.59
2022-10-24T04:10:49.916Z,100211.38
2022-10-24T04:15:52.509Z,100217.13
2022-10-24T04:20:56.417Z,100208.41
2022-10-24T04:25:58.947Z,100184.03
2022-10-24T04:31:01.564Z,100208.84
2022-10-24T04:36:06.328Z,100206.47
2022-10-24T04:41:11.314Z,100217.16
2022-10-24T04:46:15.027Z,100216.78
2022-10-24T04:51:21.630Z,100219.47
2022-10-24T04:56:25.854Z,100224.25
2022-10-24T05:01:28.496Z,100234.34
2022-10-24T05:06:32.717Z,100237.84
2022-10-24T05:11:35.366Z,100243.28
2022-10-24T05:16:37.952Z,100233.28
2022-10-24T05:21:42.051Z,100238.41
2022-10-24T05:26:44.609Z,100243.09
2022-10-24T05:31:47.191Z,100247.63
2022-10-24T05:36:51.032Z,100245.53
2022-10-24T05:41:55.317Z,100246.16
2022-10-24T05:46:58.283Z,100243.75
2022-10-24T05:52:02.151Z,100239.81
2022-10-24T05:57:06.223Z,100252.94
2022-10-24T06:02:09.436Z,100251.81
2022-10-24T06:07:13.669Z,100263.59
2022-10-24T06:12:16.235Z,100263.47
2022-10-24T06:17:19.449Z,100267.69
2022-10-24T06:22:25.109Z,100257.28
2022-10-24T06:27:27.840Z,100266.97
2022-10-24T06:32:30.385Z,100276.19
2022-10-24T06:37:34.499Z,100271.16
2022-10-24T06:42:37.007Z,100262.69
2022-10-24T06:47:39.607Z,100282.91
2022-10-24T06:52:43.508Z,100280.25
2022-10-24T06:57:46.444Z,100282.38
2022-10-24T07:02:49.316Z,100282.91
2022-10-24T07:07:53.287Z,100291.59
2022-10-24T07:12:55.821Z,100288.66
2022-10-24T07:17:58.346Z,100274.81
2022-10-24T07:23:02.211Z,100314.38
2022-10-24T07:28:05.023Z,100318.03
2022-10-24T07:33:07.800Z,100324.63
2022-10-24T07:38:14.279Z,100325.53
2022-10-24T07:43:19.253Z,100313.56
2022-10-24T07:48:21.976Z,100334.75
2022-10-24T07:53:27.343Z,100334.38
2022-10-24T07:58:30.369Z,100345.28
2022-10-24T08:03:32.936Z,100337.22
2022-10-24T08:08:37.899Z,100330.81
2022-10-24T08:13:41.093Z,100317.03
2022-10-24T08:18:43.929Z,100339.44
2022-10-24T08:23:50.207Z,100343.38
2022-10-24T08:28:53.552Z,100339.75
2022-10-24T08:33:56.688Z,100342.50
2022-10-24T08:39:01.483Z,100348.00
2022-10-24T08:44:07.592Z,100335.91
2022-10-24T08:49:30.630Z,100351.78
2022-10-24T08:54:39.776Z,100367.66
2022-10-24T08:59:42.908Z,100365.16
2022-10-24T09:04:51.064Z,100370.25
2022-10-24T09:10:05.775Z,100381.88
2022-10-24T09:15:16.562Z,100388.22
2022-10-24T09:20:25.583Z,100384.66
2022-10-24T09:25:34.123Z,100403.66
2022-10-24T09:30:37.430Z,100410.31
2022-10-24T09:35:40.832Z,100405.72
2022-10-24T09:40:51.849Z,100395.03
2022-10-24T09:46:03.285Z,100411.00
2022-10-24T09:51:08.007Z,100416.72
2022-10-24T09:56:13.608Z,100413.03
2022-10-24T10:01:22.598Z,100418.94
2022-10-24T10:06:25.405Z,100409.13
2022-10-24T10:11:35.046Z,100417.91
2022-10-24T10:16:40.451Z,100408.16
2022-10-24T10:21:54.601Z,100430.63
2022-10-24T10:26:58.574Z,100439.25
2022-10-24T10:32:07.752Z,100451.03
2022-10-24T10:37:27.398Z,100447.16
2022-10-24T10:42:37.211Z,100460.88
2022-10-24T10:47:49.264Z,100460.34
2022-10-24T10:52:52.009Z,100456.97
2022-10-24T10:58:03.671Z,100462.22
2022-10-24T11:03:22.742Z,100473.69
2022-10-24T11:08:46.638Z,100459.66
2022-10-24T11:13:57.530Z,100476.19
2022-10-24T11:19:02.886Z,100478.94
2022-10-24T11:24:13.739Z,100483.09
2022-10-24T11:29:25.253Z,100489.78
2022-10-24T11:34:32.599Z,100505.69
2022-10-24T11:39:41.325Z,100500.09
2022-10-24T11:44:54.528Z,100506.41
2022-10-24T11:50:05.614Z,100507.03
2022-10-24T11:55:15.438Z,100507.66
2022-10-24T12:00:24.085Z,100515.75
2022-10-24T12:05:51.651Z,100513.28
2022-10-24T12:11:07.416Z,100518.28
2022-10-24T12:16:21.763Z,100518.31
2022-10-24T12:21:27.885Z,100512.16
2022-10-24T12:26:32.582Z,100521.72
2022-10-24T12:31:39.785Z,100521.66
2022-10-24T12:37:11.791Z,100522.41
2022-10-24T12:42:17.048Z,100509.25
2022-10-24T12:47:36.504Z,100516.84
2022-10-24T12:53:03.514Z,100497.38
2022-10-24T12:58:22.964Z,100533.47
2022-10-24T13:03:45.273Z,100524.97
2022-10-24T13:09:10.646Z,100518.47
2022-10-24T13:14:35.033Z,100502.56
2022-10-24T13:19:39.314Z,100502.94
2022-10-24T13:24:41.917Z,100511.38
2022-10-24T13:30:32.715Z,100507.22
2022-10-24T13:35:36.874Z,100516.84
2022-10-24T13:40:44.159Z,100506.34
2022-10-24T13:45:54.806Z,100496.53
2022-10-24T13:51:06.421Z,100523.56
2022-10-24T13:56:11.333Z,100528.47
2022-10-24T14:01:20.062Z,100534.38
2022-10-24T14:06:27.822Z,100535.78
2022-10-24T14:11:32.202Z,100539.78
2022-10-24T14:16:35.899Z,100558.19
2022-10-24T14:21:43.937Z,100542.31
2022-10-24T14:26:48.042Z,100550.44
2022-10-24T14:31:57.410Z,100462.47
2022-10-24T14:37:04.285Z,100565.44
2022-10-24T14:42:14.083Z,100548.63
2022-10-24T14:47:23.277Z,100530.78
2022-10-24T14:52:36.693Z,100550.97
2022-10-24T14:57:40.071Z,100553.22
2022-10-24T15:02:43.570Z,100567.53
2022-10-24T15:08:09.158Z,100572.28
2022-10-24T15:13:14.601Z,100566.44
2022-10-24T15:18:21.018Z,100573.75
2022-10-24T15:23:28.843Z,100581.31
2022-10-24T15:28:44.724Z,100585.13
2022-10-24T15:33:48.567Z,100583.88
2022-10-24T15:38:56.663Z,100582.75
2022-10-24T15:44:00.524Z,100584.28
2022-10-24T15:49:03.409Z,100586.38
2022-10-24T15:54:07.482Z,100578.38
2022-10-24T15:59:10.241Z,100582.44
2022-10-24T16:04:12.881Z,100600.13
2022-10-24T16:09:18.572Z,100602.78
2022-10-24T16:14:23.040Z,100608.53
2022-10-24T16:19:26.311Z,100617.91
2022-10-24T16:24:30.546Z,100606.38
2022-10-24T16:29:33.117Z,100633.50
2022-10-24T16:34:35.783Z,100624.75
2022-10-24T16:39:40.185Z,100629.69
2022-10-24T16:44:42.808Z,100645.00
2022-10-24T16:49:45.985Z,100635.09
2022-10-24T16:54:49.936Z,100640.63
2022-10-24T16:59:52.537Z,100640.88
2022-10-24T17:04:55.105Z,100651.94
2022-10-24T17:09:58.991Z,100665.66
2022-10-24T17:15:01.551Z,100564.69
2022-10-24T17:20:08.871Z,100672.75
2022-10-24T17:25:21.795Z,100666.25
2022-10-24T17:30:28.406Z,100672.81
2022-10-24T17:35:31.504Z,100664.38
2022-10-24T17:40:43.591Z,100675.31
2022-10-24T17:45:46.707Z,100675.59
2022-10-24T17:50:50.222Z,100675.69
2022-10-24T17:55:54.258Z,100669.66
2022-10-24T18:00:56.843Z,100669.00
2022-10-24T18:06:00.110Z,100683.47
2022-10-24T18:11:08.848Z,100680.38
2022-10-24T18:16:13.746Z,100690.88
2022-10-24T18:26:28.304Z,100667.44
2022-10-24T18:31:33.857Z,100705.00
2022-10-24T18:36:37.261Z,100706.69
2022-10-24T18:41:48.443Z,100711.34
2022-10-24T18:46:52.862Z,100706.56
2022-10-24T18:52:04.834Z,100711.34
2022-10-24T18:57:21.799Z,100712.31
2022-10-24T19:02:28.724Z,100710.00
2022-10-24T19:07:31.643Z,100709.59
2022-10-24T19:12:36.148Z,100701.50
2022-10-24T19:17:38.768Z,100697.41
2022-10-24T19:22:41.311Z,100696.16
2022-10-24T19:27:45.325Z,100683.41
2022-10-24T19:32:48.563Z,100664.00
2022-10-24T19:37:51.527Z,100693.59
2022-10-24T19:42:55.408Z,100685.38
2022-10-24T19:47:59.589Z,100692.41
2022-10-24T19:53:02.286Z,100709.38
2022-10-24T19:58:09.779Z,100726.88
2022-10-24T20:03:12.483Z,100731.88
2022-10-24T20:08:15.119Z,100735.91
2022-10-24T20:13:19.083Z,100740.53
2022-10-24T20:18:22.095Z,100742.22
2022-10-24T20:23:25.921Z,100741.69
2022-10-24T20:28:30.618Z,100756.88
2022-10-24T20:33:33.190Z,100762.34
2022-10-24T20:38:36.188Z,100754.47
2022-10-24T20:43:40.177Z,100774.97
2022-10-24T20:48:42.725Z,100787.88
2022-10-24T20:53:46.108Z,100783.44
2022-10-24T20:58:51.444Z,100793.34
2022-10-24T21:03:54.849Z,100793.50
2022-10-24T21:08:59.813Z,100763.38
2022-10-24T21:14:05.509Z,100791.69
2022-10-24T21:19:08.278Z,100815.03
2022-10-24T21:24:15.117Z,100826.88
2022-10-24T21:29:32.716Z,100831.22
2022-10-24T21:34:36.214Z,100829.69
2022-10-24T21:39:38.745Z,100834.63
2022-10-24T21:44:42.615Z,100837.91
2022-10-24T21:49:45.107Z,100846.00
2022-10-24T21:54:47.599Z,100843.94
2022-10-24T21:59:51.457Z,100849.84
2022-10-24T22:04:54.547Z,100849.28
2022-10-24T22:09:57.048Z,100863.31
2022-10-24T22:15:00.942Z,100867.66
2022-10-24T22:20:03.494Z,100869.44
2022-10-24T22:25:07.115Z,100864.38
2022-10-24T22:30:11.622Z,100866.44
2022-10-24T22:35:16.257Z,100863.66
2022-10-24T22:40:24.805Z,100862.19
2022-10-24T22:45:29.468Z,100872.84
2022-10-24T22:50:48.469Z,100868.25
2022-10-24T22:56:02.173Z,100871.66
2022-10-24T23:01:16.578Z,100879.38
2022-10-24T23:06:27.790Z,100859.66
2022-10-24T23:11:30.626Z,100903.69
2022-10-24T23:16:41.017Z,100906.00
2022-10-24T23:21:50.699Z,100899.09
2022-10-24T23:27:15.461Z,100902.88
2022-10-24T23:32:24.038Z,100913.50
2022-10-24T23:37:33.035Z,100912.53
2022-10-24T23:42:36.196Z,100921.75
2022-10-24T23:48:08.770Z,100929.84
2022-10-24T23:53:26.809Z,100935.28
2022-10-24T23:58:29.380Z,100944.13
